createdAt,value
2022-10-17T00:01:23.183Z,97099.34
2022-10-17T00:03:52.347Z,97096.56
2022-10-17T00:06:20.739Z,97090.50
2022-10-17T00:08:50.405Z,97097.63
2022-10-17T00:11:22.392Z,97096.47
2022-10-17T00:13:52.961Z,97094.28
2022-10-17T00:16:25.792Z,97095.03
2022-10-17T00:18:54.992Z,97106.31
2022-10-17T00:21:25.100Z,97107.13
2022-10-17T00:23:55.021Z,97099.69
2022-10-17T00:26:25.340Z,97105.69
2022-10-17T00:28:54.403Z,97111.72
2022-10-17T00:31:25.105Z,97112.84
2022-10-17T00:33:53.954Z,97121.59
2022-10-17T00:36:25.106Z,97121.34
2022-10-17T00:38:55.464Z,97121.06
2022-10-17T00:41:28.574Z,97118.88
2022-10-17T00:44:00.406Z,97119.69
2022-10-17T00:46:31.626Z,97120.19
2022-10-17T00:49:04.417Z,97122.38
2022-10-17T00:51:37.814Z,97118.25
2022-10-17T00:54:07.978Z,97113.56
2022-10-17T00:56:38.395Z,97117.66
2022-10-17T00:59:08.371Z,97119.81
2022-10-17T01:01:39.837Z,97116.22
2022-10-17T01:04:09.173Z,97113.34
2022-10-17T01:06:37.529Z,97114.44
2022-10-17T01:09:06.547Z,97114.78
2022-10-17T01:11:45.713Z,97120.25
2022-10-17T01:14:23.987Z,97114.78
2022-10-17T01:16:59.579Z,97127.59
2022-10-17T01:19:45.500Z,97120.69
2022-10-17T01:22:23.842Z,97111.25
2022-10-17T01:25:12.896Z,97115.00
2022-10-17T01:28:00.338Z,97116.59
2022-10-17T01:30:57.400Z,97110.03
2022-10-17T01:33:47.758Z,97112.78
2022-10-17T01:36:24.822Z,97110.00
2022-10-17T01:39:02.355Z,97110.00
2022-10-17T01:41:40.413Z,97103.09
2022-10-17T01:44:15.722Z,97098.66
2022-10-17T01:46:49.767Z,97103.78
2022-10-17T01:49:22.452Z,97105.81
2022-10-17T01:51:54.998Z,97100.59
2022-10-17T01:54:28.310Z,97099.53
2022-10-17T01:57:00.863Z,97095.97
2022-10-17T01:59:38.310Z,97094.56
2022-10-17T02:02:11.425Z,97095.59
2022-10-17T02:04:40.193Z,97092.53
2022-10-17T02:07:09.990Z,97099.31
2022-10-17T02:09:39.610Z,97103.13
2022-10-17T02:12:23.563Z,97095.06
2022-10-17T02:15:05.900Z,97095.31
2022-10-17T02:17:46.672Z,97086.81
2022-10-17T02:20:21.823Z,97089.72
2022-10-17T02:22:56.914Z,97098.00
2022-10-17T02:25:37.210Z,97087.34
2022-10-17T02:28:18.512Z,97091.94
2022-10-17T02:30:54.906Z,97095.75
2022-10-17T02:33:28.817Z,97100.63
2022-10-17T02:36:04.452Z,97094.88
2022-10-17T02:38:35.410Z,97103.56
2022-10-17T02:41:05.644Z,97100.75
2022-10-17T02:43:36.221Z,97101.25
2022-10-17T02:46:06.275Z,97097.97
2022-10-17T02:48:41.329Z,97088.38
2022-10-17T02:51:16.474Z,97102.59
2022-10-17T02:53:50.857Z,97097.16
2022-10-17T02:56:21.596Z,97094.34
2022-10-17T02:58:55.577Z,97096.41
2022-10-17T03:01:25.437Z,97093.88
2022-10-17T03:04:07.269Z,97098.09
2022-10-17T03:06:36.419Z,97099.66
2022-10-17T03:09:05.693Z,97101.13
2022-10-17T03:11:34.222Z,97110.13
2022-10-17T03:14:02.708Z,97103.88
2022-10-17T03:16:31.928Z,97113.38
2022-10-17T03:19:00.293Z,97108.66
2022-10-17T03:21:30.673Z,97111.56
2022-10-17T03:23:59.333Z,97121.63
2022-10-17T03:26:29.510Z,97120.81
2022-10-17T03:28:59.034Z,97121.06
2022-10-17T03:31:30.471Z,97119.69
2022-10-17T03:34:00.221Z,97110.25
2022-10-17T03:36:29.974Z,97115.88
2022-10-17T03:38:58.970Z,97114.38
2022-10-17T03:41:28.034Z,97112.50
2022-10-17T03:43:56.374Z,97120.41
2022-10-17T03:46:26.749Z,97126.13
2022-10-17T03:48:56.557Z,97131.19
2022-10-17T03:51:25.650Z,97128.25
2022-10-17T03:54:01.477Z,97131.56
2022-10-17T03:56:31.751Z,97131.88
2022-10-17T03:59:06.223Z,97134.03
2022-10-17T04:01:37.631Z,97139.13
2022-10-17T04:04:06.539Z,97142.59
2022-10-17T04:06:37.967Z,97140.59
2022-10-17T04:09:08.687Z,97143.47
2022-10-17T04:11:50.591Z,97140.50
2022-10-17T04:14:19.493Z,97144.88
2022-10-17T04:16:48.321Z,97142.38
2022-10-17T04:19:20.594Z,97144.44
2022-10-17T04:21:49.799Z,97147.25
2022-10-17T04:24:20.605Z,97144.53
2022-10-17T04:27:10.938Z,97146.31
2022-10-17T04:29:44.003Z,97142.41
2022-10-17T04:32:18.590Z,97145.97
2022-10-17T04:34:55.277Z,97146.97
2022-10-17T04:37:25.615Z,97154.44
2022-10-17T04:39:57.308Z,97159.28
2022-10-17T04:42:26.580Z,97150.53
2022-10-17T04:44:55.798Z,97155.72
2022-10-17T04:47:26.992Z,97152.75
2022-10-17T04:49:57.097Z,97153.84
2022-10-17T04:52:26.434Z,97155.97
2022-10-17T04:54:57.308Z,97159.53
2022-10-17T04:57:25.933Z,97156.47
2022-10-17T05:00:06.506Z,97160.59
2022-10-17T05:02:58.160Z,97163.06
2022-10-17T05:05:28.827Z,97172.81
2022-10-17T05:07:58.962Z,97172.13
2022-10-17T05:10:37.457Z,97173.06
2022-10-17T05:13:07.642Z,97174.97
2022-10-17T05:15:38.033Z,97162.44
2022-10-17T05:18:07.864Z,97158.78
2022-10-17T05:20:37.489Z,97174.59
2022-10-17T05:23:07.791Z,97177.00
2022-10-17T05:25:42.971Z,97176.38
2022-10-17T05:28:11.691Z,97175.88
2022-10-17T05:30:42.329Z,97179.09
2022-10-17T05:33:11.374Z,97175.78
2022-10-17T05:35:40.415Z,97180.41
2022-10-17T05:38:09.231Z,97183.00
2022-10-17T05:40:39.501Z,97190.00
2022-10-17T05:43:10.145Z,97188.84
2022-10-17T05:45:38.809Z,97194.16
2022-10-17T05:48:10.814Z,97199.13
2022-10-17T05:50:39.222Z,97205.50
2022-10-17T05:53:15.625Z,97208.69
2022-10-17T05:55:56.667Z,97210.59
2022-10-17T06:01:32.939Z,97222.19
2022-10-17T06:04:01.772Z,97214.84
2022-10-17T06:06:30.902Z,97212.75
2022-10-17T06:08:59.436Z,97216.84
2022-10-17T06:11:33.374Z,97214.47
2022-10-17T06:14:03.547Z,97224.16
2022-10-17T06:16:32.726Z,97222.13
2022-10-17T06:19:01.845Z,97229.25
2022-10-17T06:21:34.688Z,97228.78
2022-10-17T06:24:09.261Z,97228.06
2022-10-17T06:26:40.499Z,97230.91
2022-10-17T06:29:12.392Z,97238.81
2022-10-17T06:31:48.199Z,97247.94
2022-10-17T06:34:17.452Z,97249.00
2022-10-17T06:36:46.978Z,97248.28
2022-10-17T06:39:17.135Z,97251.94
2022-10-17T06:41:58.789Z,97256.16
2022-10-17T06:44:42.844Z,97264.47
2022-10-17T06:47:30.906Z,97260.16
2022-10-17T06:50:02.313Z,97260.53
2022-10-17T06:52:40.823Z,97260.03
2022-10-17T06:55:41.483Z,97267.25
2022-10-17T06:58:25.499Z,97260.56
2022-10-17T07:01:19.083Z,97267.44
2022-10-17T07:03:50.184Z,97274.31
2022-10-17T07:06:19.502Z,97275.72
2022-10-17T07:08:49.944Z,97284.00
2022-10-17T07:11:22.463Z,97276.88
2022-10-17T07:13:53.766Z,97284.13
2022-10-17T07:16:24.958Z,97279.00
2022-10-17T07:19:01.772Z,97283.06
2022-10-17T07:21:39.041Z,97282.31
2022-10-17T07:24:09.185Z,97284.88
2022-10-17T07:26:37.746Z,97278.47
2022-10-17T07:29:07.491Z,97291.13
2022-10-17T07:31:41.361Z,97295.09
2022-10-17T07:34:10.402Z,97302.31
2022-10-17T07:36:38.800Z,97300.66
2022-10-17T07:39:09.208Z,97294.84
2022-10-17T07:41:39.208Z,97296.34
2022-10-17T07:44:08.973Z,97292.63
2022-10-17T07:46:46.153Z,97291.97
2022-10-17T07:49:14.987Z,97298.75
2022-10-17T07:51:44.297Z,97300.75
2022-10-17T07:54:14.357Z,97302.88
2022-10-17T07:56:42.758Z,97300.75
2022-10-17T07:59:11.914Z,97306.88
2022-10-17T08:01:40.261Z,97307.03
2022-10-17T08:04:10.984Z,97312.09
2022-10-17T08:06:39.795Z,97312.81
2022-10-17T08:09:08.487Z,97307.19
2022-10-17T08:11:37.452Z,97308.53
2022-10-17T08:14:05.850Z,97311.34
2022-10-17T08:16:35.108Z,97316.88
2022-10-17T08:19:05.065Z,97305.25
2022-10-17T08:21:34.888Z,97302.84
2022-10-17T08:24:04.592Z,97309.56
2022-10-17T08:26:33.410Z,97317.81
2022-10-17T08:29:02.315Z,97322.50
2022-10-17T08:31:30.737Z,97316.97
2022-10-17T08:34:00.643Z,97320.69
2022-10-17T08:36:29.184Z,97321.13
2022-10-17T08:38:59.879Z,97319.28
2022-10-17T08:41:46.697Z,97323.28
2022-10-17T08:44:31.229Z,97319.69
2022-10-17T08:47:03.786Z,97320.84
2022-10-17T08:49:41.556Z,97322.19
2022-10-17T08:52:21.422Z,97318.81
2022-10-17T08:54:52.800Z,97317.19
2022-10-17T08:57:21.336Z,97325.25
2022-10-17T08:59:52.444Z,97323.47
2022-10-17T09:02:36.597Z,97330.34
2022-10-17T09:05:28.665Z,97331.34
2022-10-17T09:08:06.113Z,97331.78
2022-10-17T09:10:47.712Z,97329.66
2022-10-17T09:13:25.830Z,97336.56
2022-10-17T09:16:05.452Z,97339.31
2022-10-17T09:18:37.987Z,97327.22
2022-10-17T09:21:18.729Z,97334.31
2022-10-17T09:23:59.459Z,97335.41
2022-10-17T09:26:40.394Z,97335.34
2022-10-17T09:29:19.793Z,97329.00
2022-10-17T09:31:53.228Z,97309.38
2022-10-17T09:34:26.746Z,97318.66
2022-10-17T09:36:56.383Z,97320.44
2022-10-17T09:39:27.067Z,97322.38
2022-10-17T09:41:59.127Z,97321.25
2022-10-17T09:44:33.047Z,97323.97
2022-10-17T09:47:14.297Z,97324.47
2022-10-17T09:49:44.418Z,97338.25
2022-10-17T09:52:15.814Z,97337.50
2022-10-17T09:54:48.410Z,97343.97
2022-10-17T09:57:19.615Z,97349.63
2022-10-17T09:59:57.278Z,97343.59
2022-10-17T10:02:27.418Z,97344.97
2022-10-17T10:05:05.126Z,97348.22
2022-10-17T10:07:37.980Z,97354.28
2022-10-17T10:10:09.249Z,97351.41
2022-10-17T10:12:41.111Z,97353.88
2022-10-17T10:15:33.395Z,97360.06
2022-10-17T10:18:02.512Z,97359.72
2022-10-17T10:20:34.665Z,97360.19
2022-10-17T10:23:17.582Z,97361.88
2022-10-17T10:25:56.879Z,97360.19
2022-10-17T10:28:30.702Z,97354.16
2022-10-17T10:31:05.002Z,97354.81
2022-10-17T10:33:41.382Z,97353.59
2022-10-17T10:36:11.168Z,97352.06
2022-10-17T10:38:43.327Z,97352.06
2022-10-17T10:41:13.343Z,97351.50
2022-10-17T10:43:46.219Z,97352.66
2022-10-17T10:46:20.600Z,97350.94
2022-10-17T10:48:52.696Z,97352.13
2022-10-17T10:51:28.631Z,97355.97
2022-10-17T10:54:03.340Z,97352.31
2022-10-17T10:56:38.075Z,97341.31
2022-10-17T10:59:15.533Z,97341.59
2022-10-17T11:01:52.583Z,97345.44
2022-10-17T11:04:29.298Z,97350.34
2022-10-17T11:07:04.357Z,97357.72
2022-10-17T11:09:52.470Z,97350.34
2022-10-17T11:12:25.262Z,97345.72
2022-10-17T11:15:02.290Z,97344.09
2022-10-17T11:17:37.758Z,97349.19
2022-10-17T11:20:19.041Z,97341.03
2022-10-17T11:22:49.014Z,97341.81
2022-10-17T11:25:34.152Z,97335.63
2022-10-17T11:28:05.331Z,97333.66
2022-10-17T11:30:46.305Z,97337.44
2022-10-17T11:33:19.602Z,97337.44
2022-10-17T11:35:52.818Z,97337.25
2022-10-17T11:38:29.211Z,97330.88
2022-10-17T11:41:00.818Z,97327.47
2022-10-17T11:43:33.751Z,97335.97
2022-10-17T11:46:13.855Z,97334.00
2022-10-17T11:48:46.739Z,97339.69
2022-10-17T11:54:13.411Z,97337.09
2022-10-17T11:56:50.439Z,97334.03
2022-10-17T11:59:49.679Z,97338.75
2022-10-17T12:02:29.756Z,97324.84
2022-10-17T12:05:06.931Z,97325.81
2022-10-17T12:07:49.810Z,97324.53
2022-10-17T12:10:31.012Z,97324.81
2022-10-17T12:13:41.519Z,97334.59
2022-10-17T12:16:45.074Z,97332.59
2022-10-17T12:19:33.103Z,97335.59
2022-10-17T12:22:06.939Z,97329.47
2022-10-17T12:24:40.679Z,97330.84
2022-10-17T12:27:46.199Z,97332.97
2022-10-17T12:30:24.766Z,97319.03
2022-10-17T12:33:06.078Z,97328.09
2022-10-17T12:35:39.205Z,97321.38
2022-10-17T12:38:29.663Z,97314.84
2022-10-17T12:41:03.503Z,97315.09
2022-10-17T12:46:56.637Z,97307.72
2022-10-17T12:49:42.477Z,97303.34
2022-10-17T12:52:55.732Z,97304.00
2022-10-17T12:55:26.713Z,97307.13
2022-10-17T12:58:00.597Z,97307.41
2022-10-17T13:00:35.173Z,97300.22
2022-10-17T13:03:08.349Z,97311.50
2022-10-17T13:05:39.823Z,97298.63
2022-10-17T13:08:14.970Z,97308.44
2022-10-17T13:10:51.555Z,97302.00
2022-10-17T13:13:23.461Z,97297.72
2022-10-17T13:15:54.295Z,97294.47
2022-10-17T13:18:25.676Z,97295.75
2022-10-17T13:21:00.037Z,97295.03
2022-10-17T13:23:32.772Z,97301.59
2022-10-17T13:26:14.658Z,97305.00
2022-10-17T13:28:43.450Z,97303.31
2022-10-17T13:31:41.003Z,97298.31
2022-10-17T13:34:19.828Z,97299.22
2022-10-17T13:36:51.770Z,97304.25
2022-10-17T13:39:38.471Z,97301.81
2022-10-17T13:42:23.773Z,97297.47
2022-10-17T13:44:53.011Z,97298.25
2022-10-17T13:47:23.619Z,97297.00
2022-10-17T13:49:55.530Z,97302.56
2022-10-17T13:52:27.293Z,97295.19
2022-10-17T13:54:57.452Z,97297.19
2022-10-17T13:57:29.405Z,97300.38
2022-10-17T13:59:59.881Z,97291.66
2022-10-17T14:02:30.360Z,97290.25
2022-10-17T14:05:19.904Z,97300.72
2022-10-17T14:10:44.248Z,97306.53
2022-10-17T14:13:23.672Z,97302.03
2022-10-17T14:15:53.608Z,97299.38
2022-10-17T14:18:25.462Z,97303.25
2022-10-17T14:23:45.711Z,97312.41
2022-10-17T14:26:17.079Z,97300.63
2022-10-17T14:28:49.300Z,97312.72
2022-10-17T14:31:32.165Z,97309.19
2022-10-17T14:34:02.908Z,97314.28
2022-10-17T14:36:35.514Z,97312.47
2022-10-17T14:39:10.551Z,97307.56
2022-10-17T14:41:45.698Z,97312.56
2022-10-17T14:44:23.199Z,97315.50
2022-10-17T14:46:55.315Z,97314.69
2022-10-17T14:49:32.884Z,97322.88
2022-10-17T14:52:23.917Z,97325.94
2022-10-17T14:54:52.657Z,97328.19
2022-10-17T14:57:25.554Z,97325.56
2022-10-17T14:59:56.174Z,97315.25
2022-10-17T15:02:25.484Z,97324.72
2022-10-17T15:04:54.226Z,97317.34
2022-10-17T15:07:23.707Z,97319.00
2022-10-17T15:09:54.147Z,97313.91
2022-10-17T15:12:25.128Z,97325.00
2022-10-17T15:14:55.305Z,97335.41
2022-10-17T15:17:27.483Z,97326.09
2022-10-17T15:19:56.018Z,97333.28
2022-10-17T15:22:25.784Z,97336.53
2022-10-17T15:24:54.119Z,97332.97
2022-10-17T15:27:24.617Z,97334.31
2022-10-17T15:29:53.875Z,97339.88
2022-10-17T15:32:23.973Z,97340.78
2022-10-17T15:34:52.409Z,97337.81
2022-10-17T15:37:22.829Z,97338.69
2022-10-17T15:39:54.330Z,97321.44
2022-10-17T15:42:24.469Z,97333.75
2022-10-17T15:44:52.925Z,97332.16
2022-10-17T15:47:26.945Z,97336.06
2022-10-17T15:49:56.534Z,97329.53
2022-10-17T15:52:25.320Z,97327.91
2022-10-17T15:54:56.457Z,97335.09
2022-10-17T15:57:30.074Z,97340.50
2022-10-17T16:00:00.252Z,97346.53
2022-10-17T16:02:31.508Z,97342.84
2022-10-17T16:05:00.367Z,97351.34
2022-10-17T16:07:29.789Z,97351.88
2022-10-17T16:09:58.296Z,97348.88
2022-10-17T16:12:31.680Z,97352.09
2022-10-17T16:15:00.879Z,97352.28
2022-10-17T16:17:29.653Z,97357.16
2022-10-17T16:20:00.631Z,97354.59
2022-10-17T16:22:33.153Z,97363.34
2022-10-17T16:25:09.736Z,97370.66
2022-10-17T16:27:39.156Z,97366.41
2022-10-17T16:30:09.575Z,97371.03
2022-10-17T16:32:37.966Z,97369.34
2022-10-17T16:35:09.995Z,97371.47
2022-10-17T16:37:38.519Z,97376.22
2022-10-17T16:40:08.171Z,97372.19
2022-10-17T16:42:37.336Z,97384.47
2022-10-17T16:45:06.593Z,97381.78
2022-10-17T16:47:35.547Z,97377.84
2022-10-17T16:50:04.059Z,97379.31
2022-10-17T16:52:33.847Z,97377.00
2022-10-17T16:55:02.849Z,97381.69
2022-10-17T16:57:31.280Z,97383.88
2022-10-17T17:00:00.363Z,97384.78
2022-10-17T17:02:29.231Z,97375.81
2022-10-17T17:04:57.877Z,97387.16
2022-10-17T17:07:27.491Z,97384.50
2022-10-17T17:09:57.283Z,97387.00
2022-10-17T17:12:25.763Z,97375.78
2022-10-17T17:14:54.530Z,97381.31
2022-10-17T17:17:37.055Z,97389.34
2022-10-17T17:20:11.719Z,97380.31
2022-10-17T17:22:40.551Z,97381.69
2022-10-17T17:25:11.038Z,97380.63
2022-10-17T17:27:39.440Z,97385.59
2022-10-17T17:30:09.192Z,97369.69
2022-10-17T17:32:37.548Z,97390.81
2022-10-17T17:35:06.744Z,97384.25
2022-10-17T17:37:35.625Z,97388.66
2022-10-17T17:40:05.904Z,97390.59
2022-10-17T17:42:36.262Z,97390.06
2022-10-17T17:45:05.648Z,97388.69
2022-10-17T17:47:34.375Z,97382.91
2022-10-17T17:50:03.553Z,97392.53
2022-10-17T17:52:32.636Z,97398.06
2022-10-17T17:55:01.280Z,97401.66
2022-10-17T17:57:30.547Z,97399.47
2022-10-17T18:00:00.690Z,97397.53
2022-10-17T18:02:29.999Z,97393.16
2022-10-17T18:04:58.613Z,97398.09
2022-10-17T18:07:27.280Z,97403.31
2022-10-17T18:09:57.320Z,97408.81
2022-10-17T18:12:25.767Z,97405.78
2022-10-17T18:14:54.426Z,97410.44
2022-10-17T18:17:24.626Z,97410.44
2022-10-17T18:19:52.913Z,97410.72
2022-10-17T18:22:22.974Z,97403.28
2022-10-17T18:24:51.331Z,97408.47
2022-10-17T18:27:19.677Z,97410.91
2022-10-17T18:29:48.087Z,97408.44
2022-10-17T18:32:17.227Z,97410.88
2022-10-17T18:34:47.839Z,97408.91
2022-10-17T18:37:16.417Z,97408.66
2022-10-17T18:39:45.024Z,97412.47
2022-10-17T18:42:13.338Z,97414.09
2022-10-17T18:44:42.229Z,97416.28
2022-10-17T18:47:11.241Z,97413.50
2022-10-17T18:49:39.737Z,97418.97
2022-10-17T18:52:09.656Z,97412.91
2022-10-17T18:54:38.191Z,97416.78
2022-10-17T18:57:07.314Z,97417.34
2022-10-17T18:59:35.811Z,97422.53
2022-10-17T19:02:04.272Z,97419.75
2022-10-17T19:04:32.650Z,97421.06
2022-10-17T19:07:01.035Z,97422.06
2022-10-17T19:09:30.923Z,97418.19
2022-10-17T19:12:00.168Z,97424.69
2022-10-17T19:14:30.714Z,97428.25
2022-10-17T19:16:59.656Z,97425.22
2022-10-17T19:19:28.471Z,97426.59
2022-10-17T19:21:57.097Z,97425.16
2022-10-17T19:24:27.709Z,97427.88
2022-10-17T19:27:02.499Z,97423.75
2022-10-17T19:29:33.438Z,97427.88
2022-10-17T19:32:02.585Z,97424.03
2022-10-17T19:34:31.007Z,97425.63
2022-10-17T19:37:00.178Z,97428.38
2022-10-17T19:39:28.641Z,97423.16
2022-10-17T19:42:04.293Z,97425.91
2022-10-17T19:44:35.199Z,97420.97
2022-10-17T19:47:03.965Z,97424.22
2022-10-17T19:49:32.372Z,97422.53
2022-10-17T19:52:01.181Z,97422.19
2022-10-17T19:54:29.833Z,97428.19
2022-10-17T19:56:59.965Z,97422.75
2022-10-17T19:59:28.335Z,97418.09
2022-10-17T20:01:57.118Z,97425.97
2022-10-17T20:04:26.539Z,97411.91
2022-10-17T20:06:55.491Z,97414.94
2022-10-17T20:09:25.105Z,97414.84
2022-10-17T20:11:53.487Z,97416.53
2022-10-17T20:14:23.407Z,97424.69
2022-10-17T20:16:53.551Z,97424.06
2022-10-17T20:19:22.220Z,97429.19
2022-10-17T20:21:51.005Z,97429.41
2022-10-17T20:24:19.778Z,97426.81
2022-10-17T20:26:48.164Z,97433.38
2022-10-17T20:29:18.859Z,97436.59
2022-10-17T20:31:49.420Z,97444.59
2022-10-17T20:34:20.098Z,97445.09
2022-10-17T20:36:49.127Z,97450.28
2022-10-17T20:39:20.214Z,97450.50
2022-10-17T20:41:49.492Z,97443.84
2022-10-17T20:44:17.881Z,97452.88
2022-10-17T20:47:01.059Z,97453.66
2022-10-17T20:49:31.831Z,97457.22
2022-10-17T20:52:01.502Z,97465.72
2022-10-17T20:54:29.942Z,97456.44
2022-10-17T20:57:02.488Z,97459.06
2022-10-17T20:59:34.791Z,97464.47
2022-10-17T21:02:05.848Z,97457.06
2022-10-17T21:04:45.890Z,97460.28
2022-10-17T21:07:15.665Z,97465.88
2022-10-17T21:09:45.389Z,97468.75
2022-10-17T21:12:21.719Z,97469.06
2022-10-17T21:15:00.435Z,97468.25
2022-10-17T21:17:30.830Z,97463.28
2022-10-17T21:19:59.180Z,97455.00
2022-10-17T21:22:28.352Z,97460.50
2022-10-17T21:24:56.904Z,97460.28
2022-10-17T21:27:25.525Z,97458.72
2022-10-17T21:29:54.595Z,97458.72
2022-10-17T21:32:39.454Z,97456.53
2022-10-17T21:35:13.497Z,97448.81
2022-10-17T21:37:41.947Z,97454.13
2022-10-17T21:40:12.070Z,97455.53
2022-10-17T21:42:40.579Z,97459.47
2022-10-17T21:45:15.852Z,97464.66
2022-10-17T21:48:11.691Z,97468.97
2022-10-17T21:50:39.948Z,97461.69
2022-10-17T21:53:08.770Z,97454.06
2022-10-17T21:55:37.171Z,97458.88
2022-10-17T21:58:06.408Z,97453.25
2022-10-17T22:00:34.719Z,97468.81
2022-10-17T22:03:04.367Z,97456.75
2022-10-17T22:05:33.091Z,97447.38
2022-10-17T22:08:02.864Z,97450.84
2022-10-17T22:10:32.238Z,97441.41
2022-10-17T22:13:00.593Z,97442.97
2022-10-17T22:15:30.570Z,97442.88
2022-10-17T22:17:58.929Z,97443.63
2022-10-17T22:20:27.893Z,97447.34
2022-10-17T22:22:56.611Z,97447.44
2022-10-17T22:25:26.380Z,97449.34
2022-10-17T22:27:55.285Z,97451.72
2022-10-17T22:30:24.067Z,97449.25
2022-10-17T22:32:52.407Z,97449.16
2022-10-17T22:35:21.667Z,97452.31
2022-10-17T22:37:50.336Z,97440.91
2022-10-17T22:40:18.650Z,97448.28
2022-10-17T22:42:49.157Z,97445.28
2022-10-17T22:45:17.469Z,97443.13
2022-10-17T22:47:46.607Z,97445.56
2022-10-17T22:50:15.443Z,97443.88
2022-10-17T22:52:43.759Z,97447.19
2022-10-17T22:55:12.732Z,97448.03
2022-10-17T22:57:42.063Z,97446.03
2022-10-17T23:00:14.054Z,97444.03
2022-10-17T23:02:42.597Z,97439.34
2022-10-17T23:05:11.600Z,97446.63
2022-10-17T23:07:40.595Z,97443.31
2022-10-17T23:10:09.687Z,97442.25
2022-10-17T23:12:38.764Z,97441.66
2022-10-17T23:15:08.545Z,97441.06
2022-10-17T23:17:38.425Z,97434.47
2022-10-17T23:20:09.032Z,97445.53
2022-10-17T23:22:37.383Z,97446.03
2022-10-17T23:25:06.871Z,97441.41
2022-10-17T23:27:35.660Z,97442.56
2022-10-17T23:30:05.722Z,97437.94
2022-10-17T23:32:34.097Z,97435.97
2022-10-17T23:35:04.617Z,97430.97
2022-10-17T23:37:33.673Z,97434.69
2022-10-17T23:40:02.363Z,97431.91
2022-10-17T23:42:31.530Z,97431.75
2022-10-17T23:45:00.339Z,97429.88
2022-10-17T23:47:28.882Z,97431.09
2022-10-17T23:49:57.894Z,97421.25
2022-10-17T23:52:27.624Z,97426.13
2022-10-17T23:54:55.942Z,97434.22
2022-10-17T23:57:24.727Z,97422.13
2022-10-17T23:59:53.153Z,97423.47
